createdAt,value
2018-12-02T00:01:37.366Z,48.68
2018-12-02T00:04:08.151Z,39.67
2018-12-02T00:06:38.891Z,45.95
2018-12-02T00:09:09.567Z,42.80
2018-12-02T00:11:40.316Z,42.75
2018-12-02T00:14:10.994Z,52.38
2018-12-02T00:16:42.719Z,53.00
2018-12-02T00:19:13.399Z,53.68
2018-12-02T00:21:44.035Z,57.40
2018-12-02T00:24:14.777Z,51.85
2018-12-02T00:26:45.498Z,47.13
2018-12-02T00:29:16.374Z,57.10
2018-12-02T00:31:47.767Z,57.13
2018-12-02T00:34:18.679Z,60.17
2018-12-02T00:36:49.720Z,55.95
2018-12-02T00:39:21.488Z,54.48
2018-12-02T00:41:52.539Z,52.53
2018-12-02T00:44:23.765Z,55.52
2018-12-02T00:46:57.604Z,52.10
2018-12-02T00:49:28.520Z,44.08
2018-12-02T00:51:59.436Z,49.25
2018-12-02T00:54:30.283Z,58.42
2018-12-02T00:57:05.391Z,63.15
2018-12-02T00:59:36.399Z,66.22
2018-12-02T01:02:11.211Z,61.02
2018-12-02T01:04:42.064Z,74.03
2018-12-02T01:07:13.847Z,62.00
2018-12-02T01:09:45.159Z,72.45
2018-12-02T01:12:21.312Z,62.88
2018-12-02T01:14:54.344Z,60.07
2018-12-02T01:17:27.032Z,61.77
2018-12-02T01:19:59.196Z,58.25
2018-12-02T01:22:30.283Z,51.58
2018-12-02T01:25:01.786Z,55.25
2018-12-02T01:27:32.876Z,50.20
2018-12-02T01:30:07.894Z,52.25
2018-12-02T01:32:38.851Z,51.08
2018-12-02T01:35:11.635Z,49.85
2018-12-02T01:37:46.165Z,48.05
2018-12-02T01:40:19.757Z,53.58
2018-12-02T01:42:53.058Z,49.35
2018-12-02T01:45:26.228Z,64.00
2018-12-02T01:47:59.135Z,47.40
2018-12-02T01:50:30.109Z,48.83
2018-12-02T01:53:01.368Z,57.73
2018-12-02T01:55:34.033Z,49.55
2018-12-02T01:58:05.914Z,52.08
2018-12-02T02:00:36.865Z,45.43
2018-12-02T02:03:09.674Z,41.25
2018-12-02T02:05:42.431Z,42.17
2018-12-02T02:08:13.346Z,44.85
2018-12-02T02:10:44.367Z,44.30
2018-12-02T02:13:15.760Z,46.92
2018-12-02T02:15:46.623Z,48.08
2018-12-02T02:18:17.384Z,41.53
2018-12-02T02:20:49.060Z,53.33
2018-12-02T02:23:19.806Z,44.83
2018-12-02T02:25:51.446Z,45.80
2018-12-02T02:28:22.759Z,44.13
2018-12-02T02:30:54.273Z,53.00
2018-12-02T02:33:25.557Z,47.08
2018-12-02T02:35:56.400Z,50.95
2018-12-02T02:38:27.150Z,46.33
2018-12-02T02:40:57.945Z,49.08
2018-12-02T02:43:28.706Z,55.58
2018-12-02T02:45:59.487Z,50.70
2018-12-02T02:48:30.708Z,55.63
2018-12-02T02:51:05.112Z,55.48
2018-12-02T02:53:35.769Z,56.85
2018-12-02T02:56:07.168Z,58.28
2018-12-02T02:58:37.879Z,53.35
2018-12-02T03:01:08.994Z,50.78
2018-12-02T03:03:39.749Z,58.13
2018-12-02T03:06:10.497Z,63.58
2018-12-02T03:08:41.158Z,56.05
2018-12-02T03:11:11.943Z,52.83
2018-12-02T03:13:43.168Z,55.30
2018-12-02T03:16:13.903Z,59.67
2018-12-02T03:18:44.675Z,53.20
2018-12-02T03:21:15.392Z,48.95
2018-12-02T03:23:46.094Z,48.25
2018-12-02T03:26:17.115Z,46.43
2018-12-02T03:28:48.084Z,46.95
2018-12-02T03:31:19.889Z,44.80
2018-12-02T03:33:51.232Z,45.95
2018-12-02T03:36:21.919Z,42.88
2018-12-02T03:38:52.621Z,45.20
2018-12-02T03:41:23.349Z,36.15
2018-12-02T03:43:54.057Z,43.35
2018-12-02T03:46:24.796Z,34.75
2018-12-02T03:48:55.512Z,37.00
2018-12-02T03:51:27.509Z,39.05
2018-12-02T03:53:58.146Z,46.50
2018-12-02T03:56:28.897Z,50.20
2018-12-02T03:59:00.473Z,38.60
2018-12-02T04:01:35.368Z,44.50
2018-12-02T04:04:06.246Z,48.38
2018-12-02T04:06:36.988Z,48.55
2018-12-02T04:09:09.965Z,41.25
2018-12-02T04:11:40.732Z,46.90
2018-12-02T04:14:11.465Z,47.73
2018-12-02T04:16:42.233Z,44.95
2018-12-02T04:19:12.991Z,51.92
2018-12-02T04:21:43.738Z,42.35
2018-12-02T04:24:14.425Z,42.90
2018-12-02T04:26:45.153Z,45.58
2018-12-02T04:29:15.806Z,42.33
2018-12-02T04:31:46.527Z,44.98
2018-12-02T04:34:17.508Z,47.65
2018-12-02T04:36:48.271Z,37.50
2018-12-02T04:39:19.003Z,41.37
2018-12-02T04:41:50.087Z,44.48
2018-12-02T04:44:20.825Z,47.08
2018-12-02T04:46:51.566Z,47.23
2018-12-02T04:49:22.339Z,43.08
2018-12-02T04:51:53.146Z,41.50
2018-12-02T04:54:23.912Z,46.90
2018-12-02T04:56:54.725Z,39.58
2018-12-02T04:59:25.425Z,46.00
2018-12-02T05:01:59.558Z,36.87
2018-12-02T05:04:30.262Z,39.73
2018-12-02T05:07:00.975Z,36.58
2018-12-02T05:09:31.730Z,36.98
2018-12-02T05:12:04.434Z,36.15
2018-12-02T05:14:35.140Z,38.97
2018-12-02T05:17:06.102Z,37.98
2018-12-02T05:19:36.751Z,34.15
2018-12-02T05:22:07.477Z,35.13
2018-12-02T05:24:38.157Z,34.92
2018-12-02T05:27:08.902Z,35.38
2018-12-02T05:29:39.628Z,34.18
2018-12-02T05:32:10.341Z,38.67
2018-12-02T05:34:40.993Z,42.20
2018-12-02T05:37:11.688Z,45.80
2018-12-02T05:39:42.459Z,43.05
2018-12-02T05:42:18.092Z,43.00
2018-12-02T05:44:48.814Z,38.25
2018-12-02T05:47:19.510Z,33.90
2018-12-02T05:49:50.231Z,33.00
2018-12-02T05:52:20.929Z,39.90
2018-12-02T05:54:51.631Z,41.68
2018-12-02T05:57:22.326Z,32.23
2018-12-02T05:59:53.045Z,34.45
2018-12-02T06:02:24.552Z,39.92
2018-12-02T06:04:55.266Z,38.28
2018-12-02T06:07:25.975Z,34.30
2018-12-02T06:09:56.682Z,37.85
2018-12-02T06:12:27.414Z,47.40
2018-12-02T06:14:58.157Z,36.03
2018-12-02T06:17:28.826Z,31.30
2018-12-02T06:20:04.514Z,38.50
2018-12-02T06:22:31.643Z,39.67
2018-12-02T06:25:03.557Z,35.45
2018-12-02T06:27:34.267Z,37.00
2018-12-02T06:30:09.721Z,42.15
2018-12-02T06:32:40.441Z,34.60
2018-12-02T06:35:13.685Z,40.88
2018-12-02T06:37:44.517Z,30.95
2018-12-02T06:40:19.222Z,34.53
2018-12-02T06:42:50.555Z,33.02
2018-12-02T06:45:21.433Z,38.98
2018-12-02T06:47:52.153Z,33.42
2018-12-02T06:50:24.848Z,34.23
2018-12-02T06:52:56.810Z,35.98
2018-12-02T06:56:35.489Z,34.75
2018-12-02T06:59:18.180Z,36.00
2018-12-02T07:04:08.565Z,41.02
2018-12-02T07:06:39.384Z,38.73
2018-12-02T07:09:10.145Z,36.15
2018-12-02T07:11:40.901Z,42.03
2018-12-02T07:14:11.576Z,36.90
2018-12-02T07:16:42.434Z,32.85
2018-12-02T07:19:20.847Z,36.88
2018-12-02T07:21:57.846Z,31.97
2018-12-02T07:24:32.751Z,33.60
2018-12-02T07:27:08.836Z,26.93
2018-12-02T07:29:40.127Z,32.80
2018-12-02T07:32:10.875Z,31.82
2018-12-02T07:35:05.334Z,27.90
2018-12-02T07:37:57.189Z,26.62
2018-12-02T07:40:37.150Z,32.70
2018-12-02T07:43:09.808Z,28.32
2018-12-02T07:45:40.593Z,29.32
2018-12-02T07:48:11.288Z,28.83
2018-12-02T07:50:42.069Z,30.02
2018-12-02T07:53:12.739Z,30.05
2018-12-02T07:55:43.457Z,29.27
2018-12-02T07:58:17.397Z,32.05
2018-12-02T08:00:48.121Z,26.02
2018-12-02T08:03:18.823Z,24.12
2018-12-02T08:05:49.892Z,26.10
2018-12-02T08:08:20.633Z,26.40
2018-12-02T08:10:51.969Z,29.72
2018-12-02T08:13:22.891Z,34.20
2018-12-02T08:15:53.674Z,30.97
2018-12-02T08:18:24.322Z,31.57
2018-12-02T08:20:55.057Z,27.93
2018-12-02T08:23:25.717Z,29.65
2018-12-02T08:25:56.522Z,29.25
2018-12-02T08:28:27.163Z,22.77
2018-12-02T08:30:57.888Z,25.70
2018-12-02T08:33:28.554Z,31.97
2018-12-02T08:35:59.390Z,26.45
2018-12-02T08:38:30.284Z,30.43
2018-12-02T08:41:01.137Z,29.02
2018-12-02T08:43:33.974Z,26.25
2018-12-02T08:46:05.162Z,24.98
2018-12-02T08:48:35.889Z,29.15
2018-12-02T08:51:06.735Z,28.90
2018-12-02T08:53:37.637Z,22.77
2018-12-02T08:56:08.469Z,24.85
2018-12-02T08:58:39.270Z,32.20
2018-12-02T09:01:10.614Z,29.25
2018-12-02T09:03:41.794Z,29.92
2018-12-02T09:06:14.202Z,26.82
2018-12-02T09:08:45.443Z,21.25
2018-12-02T09:11:16.381Z,26.70
2018-12-02T09:13:47.153Z,25.05
2018-12-02T09:16:18.559Z,27.17
2018-12-02T09:18:50.211Z,21.70
2018-12-02T09:21:21.018Z,24.75
2018-12-02T09:23:51.745Z,25.45
2018-12-02T09:26:22.452Z,18.62
2018-12-02T09:28:53.164Z,16.60
2018-12-02T09:31:23.897Z,15.35
2018-12-02T09:33:54.587Z,18.62
2018-12-02T09:36:25.354Z,22.13
2018-12-02T09:38:56.616Z,18.40
2018-12-02T09:41:27.270Z,25.97
2018-12-02T09:43:58.014Z,21.68
2018-12-02T09:46:28.730Z,19.82
2018-12-02T09:48:59.390Z,16.95
2018-12-02T09:51:33.693Z,19.40
2018-12-02T09:54:06.374Z,18.48
2018-12-02T09:56:38.381Z,17.23
2018-12-02T09:59:09.143Z,11.68
2018-12-02T10:01:41.998Z,12.82
2018-12-02T10:04:12.731Z,11.18
2018-12-02T10:06:44.383Z,14.53
2018-12-02T10:09:15.114Z,10.70
2018-12-02T10:11:46.663Z,12.88
2018-12-02T10:14:17.357Z,5.20
2018-12-02T10:16:48.021Z,8.65
2018-12-02T10:19:18.745Z,8.33
2018-12-02T10:21:49.477Z,9.23
2018-12-02T10:24:21.495Z,8.18
2018-12-02T10:26:52.186Z,9.10
2018-12-02T10:29:22.899Z,6.87
2018-12-02T10:31:53.634Z,8.38
2018-12-02T10:34:24.349Z,11.08
2018-12-02T10:36:55.817Z,7.80
2018-12-02T10:39:26.627Z,8.55
2018-12-02T10:41:57.329Z,6.50
2018-12-02T10:44:29.191Z,5.72
2018-12-02T10:46:59.862Z,11.30
2018-12-02T10:49:30.539Z,8.48
2018-12-02T10:52:05.326Z,10.38
2018-12-02T10:54:36.049Z,13.85
2018-12-02T10:57:06.966Z,10.35
2018-12-02T10:59:37.671Z,8.33
2018-12-02T11:02:16.592Z,9.03
2018-12-02T11:04:48.059Z,7.42
2018-12-02T11:07:18.742Z,8.68
2018-12-02T11:09:49.479Z,11.08
2018-12-02T11:12:20.210Z,5.97
2018-12-02T11:14:51.897Z,7.83
2018-12-02T11:17:22.628Z,8.28
2018-12-02T11:19:53.395Z,4.65
2018-12-02T11:22:24.639Z,7.53
2018-12-02T11:24:55.439Z,13.08
2018-12-02T11:27:26.173Z,8.48
2018-12-02T11:29:56.927Z,10.38
2018-12-02T11:32:27.657Z,7.92
2018-12-02T11:34:58.368Z,5.25
2018-12-02T11:37:29.569Z,12.33
2018-12-02T11:40:00.483Z,5.30
2018-12-02T11:42:31.241Z,12.15
2018-12-02T11:45:02.537Z,8.23
2018-12-02T11:47:37.274Z,6.22
2018-12-02T11:50:13.425Z,10.68
2018-12-02T11:52:44.215Z,7.78
2018-12-02T11:55:19.830Z,7.45
2018-12-02T11:57:51.164Z,15.63
2018-12-02T12:00:23.954Z,8.18
2018-12-02T12:02:55.375Z,8.88
2018-12-02T12:05:39.405Z,8.18
2018-12-02T12:08:16.854Z,13.65
2018-12-02T12:10:47.813Z,10.63
2018-12-02T12:13:19.768Z,17.30
2018-12-02T12:15:50.948Z,8.50
2018-12-02T12:18:21.785Z,9.95
2018-12-02T12:20:53.229Z,15.53
2018-12-02T12:23:24.371Z,12.23
2018-12-02T12:28:37.657Z,12.37
2018-12-02T12:31:08.339Z,9.05
2018-12-02T12:33:39.185Z,10.20
2018-12-02T12:36:09.925Z,9.98
2018-12-02T12:38:40.730Z,12.93
2018-12-02T12:41:11.894Z,8.98
2018-12-02T12:43:43.170Z,9.80
2018-12-02T12:46:14.186Z,9.48
2018-12-02T12:48:44.994Z,14.93
2018-12-02T12:51:15.674Z,12.10
2018-12-02T12:53:46.358Z,8.48
2018-12-02T12:56:18.351Z,9.88
2018-12-02T12:58:49.019Z,8.33
2018-12-02T13:01:20.462Z,6.40
2018-12-02T13:03:52.626Z,8.48
2018-12-02T13:06:23.367Z,10.25
2018-12-02T13:08:54.432Z,4.67
2018-12-02T13:14:41.071Z,4.47
2018-12-02T13:17:14.144Z,10.80
2018-12-02T13:19:53.785Z,11.93
2018-12-02T13:22:24.515Z,8.63
2018-12-02T13:24:55.504Z,9.93
2018-12-02T13:27:31.607Z,11.12
2018-12-02T13:30:18.341Z,5.85
2018-12-02T13:32:53.861Z,9.70
2018-12-02T13:35:28.186Z,7.53
2018-12-02T13:37:59.184Z,7.87
2018-12-02T13:40:29.867Z,9.63
2018-12-02T13:43:03.815Z,7.30
2018-12-02T13:45:35.015Z,9.90
2018-12-02T13:48:08.446Z,10.00
2018-12-02T13:50:39.615Z,8.75
2018-12-02T13:53:11.524Z,8.05
2018-12-02T13:55:42.581Z,7.85
2018-12-02T13:58:13.638Z,11.03
2018-12-02T14:00:44.583Z,5.17
2018-12-02T14:03:15.878Z,10.80
2018-12-02T14:05:47.703Z,9.53
2018-12-02T14:08:18.377Z,8.53
2018-12-02T14:11:29.090Z,11.03
2018-12-02T14:14:18.070Z,9.83
2018-12-02T14:17:09.194Z,8.20
2018-12-02T14:19:49.380Z,11.95
2018-12-02T14:22:20.352Z,10.75
2018-12-02T14:24:51.516Z,8.55
2018-12-02T14:27:23.454Z,12.15
2018-12-02T14:29:55.501Z,7.17
2018-12-02T14:32:27.123Z,9.98
2018-12-02T14:34:57.810Z,7.58
2018-12-02T14:37:28.461Z,7.15
2018-12-02T14:39:59.245Z,10.32
2018-12-02T14:42:38.669Z,14.35
2018-12-02T14:52:26.812Z,11.53
2018-12-02T14:58:23.562Z,5.28
2018-12-02T15:00:54.254Z,8.38
2018-12-02T15:03:24.931Z,7.17
2018-12-02T15:06:00.513Z,10.82
2018-12-02T15:08:34.979Z,6.87
2018-12-02T15:11:06.394Z,12.68
2018-12-02T15:13:37.094Z,7.67
2018-12-02T15:16:08.025Z,8.58
2018-12-02T15:18:38.794Z,9.18
2018-12-02T15:21:10.071Z,11.75
2018-12-02T15:23:41.438Z,10.63
2018-12-02T15:26:12.086Z,18.35
2018-12-02T15:28:42.844Z,12.37
2018-12-02T15:31:13.477Z,11.97
2018-12-02T15:33:50.331Z,9.38
2018-12-02T15:36:20.971Z,17.80
2018-12-02T15:38:51.659Z,7.95
2018-12-02T15:41:22.378Z,18.87
2018-12-02T15:43:53.132Z,10.55
2018-12-02T15:46:23.934Z,24.32
2018-12-02T15:48:54.698Z,11.70
2018-12-02T15:51:25.364Z,7.62
2018-12-02T15:53:56.074Z,9.95
2018-12-02T15:56:26.996Z,17.57
2018-12-02T15:58:57.665Z,12.13
2018-12-02T16:01:28.366Z,7.50
2018-12-02T16:03:59.073Z,7.65
2018-12-02T16:06:29.727Z,6.75
2018-12-02T16:09:00.450Z,7.97
2018-12-02T16:11:32.678Z,9.65
2018-12-02T16:14:04.535Z,6.90
2018-12-02T16:16:35.199Z,16.55
2018-12-02T16:19:06.252Z,11.78
2018-12-02T16:21:36.932Z,9.68
2018-12-02T16:24:07.634Z,7.60
2018-12-02T16:26:38.325Z,15.03
2018-12-02T16:29:08.974Z,21.70
2018-12-02T16:31:39.668Z,10.85
2018-12-02T16:34:10.407Z,13.95
2018-12-02T16:36:41.058Z,16.50
2018-12-02T16:39:11.462Z,14.73
2018-12-02T16:41:50.903Z,13.58
2018-12-02T16:44:21.602Z,15.10
2018-12-02T16:46:52.425Z,11.28
2018-12-02T16:49:23.110Z,20.23
2018-12-02T16:51:53.802Z,15.20
2018-12-02T16:54:25.525Z,13.58
2018-12-02T16:56:57.055Z,27.37
2018-12-02T16:59:32.278Z,19.75
2018-12-02T17:02:09.175Z,16.87
2018-12-02T17:04:40.257Z,13.68
2018-12-02T17:07:10.994Z,14.60
2018-12-02T17:09:42.204Z,18.65
2018-12-02T17:12:12.898Z,14.30
2018-12-02T17:14:43.526Z,15.72
2018-12-02T17:17:14.233Z,19.30
2018-12-02T17:19:45.043Z,11.43
2018-12-02T17:22:15.728Z,14.75
2018-12-02T17:24:46.462Z,14.60
2018-12-02T17:27:19.270Z,13.53
2018-12-02T17:29:50.050Z,11.28
2018-12-02T17:35:07.262Z,16.20
2018-12-02T17:37:38.013Z,12.15
2018-12-02T17:40:13.764Z,9.88
2018-12-02T17:42:44.521Z,18.65
2018-12-02T17:45:15.320Z,13.05
2018-12-02T17:47:45.969Z,16.75
2018-12-02T17:50:18.732Z,17.10
2018-12-02T17:52:50.224Z,14.38
2018-12-02T17:55:20.988Z,13.38
2018-12-02T17:57:51.756Z,14.90
2018-12-02T18:00:23.966Z,12.80
2018-12-02T18:02:55.922Z,17.37
2018-12-02T18:05:30.352Z,16.02
2018-12-02T18:08:01.083Z,13.60
2018-12-02T18:10:33.639Z,14.43
2018-12-02T18:13:05.402Z,19.50
2018-12-02T18:15:36.046Z,12.47
2018-12-02T18:18:09.853Z,14.45
2018-12-02T18:20:40.532Z,11.65
2018-12-02T18:23:11.260Z,18.05
2018-12-02T18:25:41.912Z,17.02
2018-12-02T18:28:12.613Z,18.00
2018-12-02T18:30:43.384Z,18.50
2018-12-02T18:33:15.580Z,27.00
2018-12-02T18:35:49.059Z,21.75
2018-12-02T18:38:21.298Z,20.12
2018-12-02T18:41:00.899Z,19.73
2018-12-02T18:43:41.248Z,19.62
2018-12-02T18:46:13.096Z,18.57
2018-12-02T18:48:43.758Z,16.57
2018-12-02T18:51:14.483Z,12.47
2018-12-02T18:53:45.266Z,13.18
2018-12-02T18:56:16.720Z,9.83
2018-12-02T18:58:47.486Z,11.08
2018-12-02T19:01:18.587Z,16.00
2018-12-02T19:03:50.046Z,12.03
2018-12-02T19:06:28.232Z,8.45
2018-12-02T19:08:54.940Z,9.60
2018-12-02T19:11:26.411Z,11.28
2018-12-02T19:13:57.147Z,12.45
2018-12-02T19:16:27.803Z,13.15
2018-12-02T19:18:58.485Z,12.37
2018-12-02T19:21:30.528Z,16.45
2018-12-02T19:24:04.202Z,14.18
2018-12-02T19:26:34.850Z,11.68
2018-12-02T19:29:07.482Z,9.10
2018-12-02T19:31:38.215Z,14.23
2018-12-02T19:34:09.283Z,13.55
2018-12-02T19:36:48.125Z,16.55
2018-12-02T19:39:18.969Z,15.43
2018-12-02T19:41:50.335Z,15.08
2018-12-02T19:44:21.724Z,11.70
2018-12-02T19:46:52.455Z,14.55
2018-12-02T19:49:23.107Z,15.23
2018-12-02T19:51:53.904Z,9.98
2018-12-02T19:54:24.700Z,11.90
2018-12-02T19:56:55.529Z,10.08
2018-12-02T19:59:26.225Z,16.20
2018-12-02T20:01:56.845Z,15.80
2018-12-02T20:04:27.747Z,16.82
2018-12-02T20:06:58.477Z,17.45
2018-12-02T20:09:29.601Z,10.75
2018-12-02T20:12:00.320Z,14.55
2018-12-02T20:14:33.186Z,11.70
2018-12-02T20:17:04.595Z,10.88
2018-12-02T20:19:40.683Z,11.93
2018-12-02T20:22:12.006Z,10.65
2018-12-02T20:24:42.665Z,14.80
2018-12-02T20:27:13.351Z,8.70
2018-12-02T20:29:44.086Z,16.02
2018-12-02T20:32:14.748Z,16.57
2018-12-02T20:34:45.470Z,13.75
2018-12-02T20:37:16.698Z,13.95
2018-12-02T20:39:47.417Z,10.15
2018-12-02T20:42:18.566Z,14.25
2018-12-02T20:44:52.756Z,14.23
2018-12-02T20:47:20.420Z,12.90
2018-12-02T20:49:52.328Z,12.55
2018-12-02T20:52:23.092Z,12.65
2018-12-02T20:54:54.042Z,16.73
2018-12-02T20:57:24.838Z,12.25
2018-12-02T20:59:56.623Z,13.70
2018-12-02T21:02:27.316Z,11.48
2018-12-02T21:04:58.003Z,13.80
2018-12-02T21:07:28.697Z,12.80
2018-12-02T21:10:05.520Z,12.43
2018-12-02T21:12:36.218Z,10.93
2018-12-02T21:15:14.943Z,12.65
2018-12-02T21:17:45.836Z,12.25
2018-12-02T21:20:16.505Z,8.85
2018-12-02T21:22:47.230Z,10.98
2018-12-02T21:25:20.651Z,13.55
2018-12-02T21:27:51.400Z,10.40
2018-12-02T21:30:24.420Z,12.68
2018-12-02T21:32:55.179Z,7.42
2018-12-02T21:35:25.842Z,11.95
2018-12-02T21:37:57.912Z,12.60
2018-12-02T21:40:28.612Z,15.05
2018-12-02T21:43:00.926Z,7.05
2018-12-02T21:45:35.575Z,9.55
2018-12-02T21:48:10.658Z,12.88
2018-12-02T21:50:41.348Z,8.50
2018-12-02T21:53:12.773Z,9.08
2018-12-02T21:55:52.500Z,7.12
2018-12-02T21:58:25.538Z,13.35
2018-12-02T22:01:03.247Z,8.03
2018-12-02T22:03:34.127Z,12.93
2018-12-02T22:06:06.348Z,10.98
2018-12-02T22:08:37.345Z,7.45
2018-12-02T22:11:09.001Z,12.00
2018-12-02T22:13:43.412Z,7.70
2018-12-02T22:16:12.101Z,12.40
2018-12-02T22:18:42.739Z,10.93
2018-12-02T22:21:14.262Z,10.55
2018-12-02T22:23:45.094Z,8.35
2018-12-02T22:26:15.781Z,9.30
2018-12-02T22:28:46.616Z,13.30
2018-12-02T22:31:17.493Z,12.28
2018-12-02T22:33:48.981Z,11.45
2018-12-02T22:36:19.735Z,9.30
2018-12-02T22:38:50.619Z,10.50
2018-12-02T22:41:21.407Z,8.95
2018-12-02T22:43:53.582Z,14.78
2018-12-02T22:46:24.350Z,20.90
2018-12-02T22:48:54.993Z,11.63
2018-12-02T22:51:25.942Z,13.35
2018-12-02T22:53:57.689Z,10.23
2018-12-02T22:56:28.984Z,11.20
2018-12-02T22:59:00.902Z,6.28
2018-12-02T23:01:38.809Z,11.35
2018-12-02T23:04:09.603Z,5.90
2018-12-02T23:06:40.362Z,6.65
2018-12-02T23:09:11.209Z,9.85
2018-12-02T23:11:42.686Z,4.17
2018-12-02T23:14:13.777Z,8.50
2018-12-02T23:16:54.286Z,9.83
2018-12-02T23:19:26.917Z,10.98
2018-12-02T23:22:06.350Z,9.83
2018-12-02T23:24:37.026Z,6.95
2018-12-02T23:27:07.922Z,8.58
2018-12-02T23:29:39.441Z,5.97
2018-12-02T23:32:10.200Z,11.08
2018-12-02T23:34:42.170Z,11.10
2018-12-02T23:37:20.427Z,8.28
2018-12-02T23:39:45.455Z,11.03
2018-12-02T23:42:16.963Z,11.25
2018-12-02T23:44:49.109Z,8.10
2018-12-02T23:47:19.755Z,13.65
2018-12-02T23:49:50.431Z,10.30
2018-12-02T23:52:23.135Z,7.85
2018-12-02T23:54:53.781Z,12.78
2018-12-02T23:57:24.549Z,8.45
2018-12-02T23:59:56.747Z,9.25
